sensor_id;sensor_type;location;lat;lon;timestamp;pressure;altitude;pressure_sealevel;temperature;humidity
10348;BME280;5220;43.192;23.284;2024-01-27T00:01:43;97470.66;;;2.87;100.00
10348;BME280;5220;43.192;23.284;2024-01-27T00:04:10;97478.38;;;2.87;100.00
10348;BME280;5220;43.192;23.284;2024-01-27T00:06:38;97477.50;;;2.88;100.00
10348;BME280;5220;43.192;23.284;2024-01-27T00:09:05;97501.38;;;2.90;100.00
10348;BME280;5220;43.192;23.284;2024-01-27T00:11:32;97496.22;;;2.92;100.00
10348;BME280;5220;43.192;23.284;2024-01-27T00:13:58;97493.44;;;2.73;100.00
10348;BME280;5220;43.192;23.284;2024-01-27T00:16:25;97471.69;;;2.83;100.00
10348;BME280;5220;43.192;23.284;2024-01-27T00:18:52;97461.09;;;2.67;100.00
10348;BME280;5220;43.192;23.284;2024-01-27T00:21:18;97448.69;;;2.79;100.00
10348;BME280;5220;43.192;23.284;2024-01-27T00:23:46;97451.06;;;2.85;100.00
10348;BME280;5220;43.192;23.284;2024-01-27T00:26:13;97436.50;;;2.85;100.00
10348;BME280;5220;43.192;23.284;2024-01-27T00:28:40;97428.78;;;2.85;100.00
10348;BME280;5220;43.192;23.284;2024-01-27T00:31:06;97430.41;;;2.88;100.00
10348;BME280;5220;43.192;23.284;2024-01-27T00:33:33;97429.44;;;2.90;100.00
10348;BME280;5220;43.192;23.284;2024-01-27T00:36:01;97432.75;;;2.94;100.00
10348;BME280;5220;43.192;23.284;2024-01-27T00:38:28;97442.06;;;2.96;100.00
10348;BME280;5220;43.192;23.284;2024-01-27T00:40:56;97448.91;;;2.97;100.00
10348;BME280;5220;43.192;23.284;2024-01-27T00:43:22;97440.53;;;2.92;100.00
10348;BME280;5220;43.192;23.284;2024-01-27T00:45:49;97442.25;;;2.92;100.00
10348;BME280;5220;43.192;23.284;2024-01-27T00:48:16;97445.66;;;2.92;100.00
10348;BME280;5220;43.192;23.284;2024-01-27T00:50:42;97445.56;;;2.95;100.00
10348;BME280;5220;43.192;23.284;2024-01-27T00:53:09;97454.16;;;2.94;100.00
10348;BME280;5220;43.192;23.284;2024-01-27T00:55:36;97448.88;;;2.99;100.00
10348;BME280;5220;43.192;23.284;2024-01-27T00:58:04;97439.84;;;2.87;100.00
10348;BME280;5220;43.192;23.284;2024-01-27T01:00:30;97443.13;;;2.91;100.00
10348;BME280;5220;43.192;23.284;2024-01-27T01:02:57;97448.06;;;2.97;100.00
10348;BME280;5220;43.192;23.284;2024-01-27T01:05:24;97447.91;;;3.01;100.00
10348;BME280;5220;43.192;23.284;2024-01-27T01:07:50;97457.28;;;3.02;100.00
10348;BME280;5220;43.192;23.284;2024-01-27T01:10:17;97449.41;;;3.07;100.00
10348;BME280;5220;43.192;23.284;2024-01-27T01:12:44;97451.09;;;3.08;100.00
10348;BME280;5220;43.192;23.284;2024-01-27T01:15:12;97444.09;;;3.11;100.00
10348;BME280;5220;43.192;23.284;2024-01-27T01:17:39;97424.69;;;3.04;100.00
10348;BME280;5220;43.192;23.284;2024-01-27T01:20:07;97427.88;;;3.11;100.00
10348;BME280;5220;43.192;23.284;2024-01-27T01:22:34;97419.31;;;3.10;100.00
10348;BME280;5220;43.192;23.284;2024-01-27T01:25:01;97417.41;;;3.15;100.00
10348;BME280;5220;43.192;23.284;2024-01-27T01:27:27;97415.41;;;3.23;100.00
10348;BME280;5220;43.192;23.284;2024-01-27T01:29:54;97413.50;;;3.29;100.00
10348;BME280;5220;43.192;23.284;2024-01-27T01:32:22;97403.00;;;3.35;100.00
10348;BME280;5220;43.192;23.284;2024-01-27T01:34:49;97407.13;;;3.39;100.00
10348;BME280;5220;43.192;23.284;2024-01-27T01:37:15;97418.06;;;3.44;100.00
10348;BME280;5220;43.192;23.284;2024-01-27T01:39:42;97407.78;;;3.44;100.00
10348;BME280;5220;43.192;23.284;2024-01-27T01:42:09;97403.28;;;3.49;100.00
10348;BME280;5220;43.192;23.284;2024-01-27T01:44:35;97397.22;;;3.51;100.00
10348;BME280;5220;43.192;23.284;2024-01-27T01:47:02;97395.19;;;3.59;100.00
10348;BME280;5220;43.192;23.284;2024-01-27T01:49:32;97406.06;;;3.66;100.00
10348;BME280;5220;43.192;23.284;2024-01-27T01:51:58;97397.47;;;3.67;100.00
10348;BME280;5220;43.192;23.284;2024-01-27T01:54:25;97389.75;;;3.67;100.00
10348;BME280;5220;43.192;23.284;2024-01-27T01:56:54;97397.41;;;3.68;100.00
10348;BME280;5220;43.192;23.284;2024-01-27T01:59:21;97396.56;;;3.68;100.00
10348;BME280;5220;43.192;23.284;2024-01-27T02:01:48;97405.84;;;3.72;100.00
10348;BME280;5220;43.192;23.284;2024-01-27T02:04:14;97407.44;;;3.74;100.00
10348;BME280;5220;43.192;23.284;2024-01-27T02:06:42;97385.00;;;3.78;100.00
10348;BME280;5220;43.192;23.284;2024-01-27T02:09:09;97383.16;;;3.82;100.00
10348;BME280;5220;43.192;23.284;2024-01-27T02:11:36;97380.63;;;3.37;100.00
10348;BME280;5220;43.192;23.284;2024-01-27T02:14:03;97391.47;;;3.21;100.00
10348;BME280;5220;43.192;23.284;2024-01-27T02:16:30;97384.03;;;3.37;100.00
10348;BME280;5220;43.192;23.284;2024-01-27T02:18:57;97374.06;;;3.51;100.00
10348;BME280;5220;43.192;23.284;2024-01-27T02:21:23;97372.50;;;3.47;100.00
10348;BME280;5220;43.192;23.284;2024-01-27T02:23:51;97373.31;;;3.26;100.00
10348;BME280;5220;43.192;23.284;2024-01-27T02:26:19;97362.22;;;3.69;100.00
10348;BME280;5220;43.192;23.284;2024-01-27T02:28:46;97363.19;;;3.88;100.00
10348;BME280;5220;43.192;23.284;2024-01-27T02:31:13;97373.03;;;3.99;100.00
10348;BME280;5220;43.192;23.284;2024-01-27T02:33:39;97380.44;;;4.06;100.00
10348;BME280;5220;43.192;23.284;2024-01-27T02:36:06;97366.31;;;4.16;100.00
10348;BME280;5220;43.192;23.284;2024-01-27T02:38:33;97350.59;;;4.22;100.00
10348;BME280;5220;43.192;23.284;2024-01-27T02:40:59;97347.91;;;4.25;100.00
10348;BME280;5220;43.192;23.284;2024-01-27T02:43:27;97357.31;;;4.26;100.00
10348;BME280;5220;43.192;23.284;2024-01-27T02:45:54;97346.81;;;4.31;100.00
10348;BME280;5220;43.192;23.284;2024-01-27T02:48:21;97350.34;;;4.28;100.00
10348;BME280;5220;43.192;23.284;2024-01-27T02:50:47;97364.78;;;4.32;100.00
10348;BME280;5220;43.192;23.284;2024-01-27T02:53:14;97370.44;;;4.41;100.00
10348;BME280;5220;43.192;23.284;2024-01-27T02:55:41;97362.97;;;4.34;100.00
10348;BME280;5220;43.192;23.284;2024-01-27T02:58:07;97362.06;;;4.36;100.00
10348;BME280;5220;43.192;23.284;2024-01-27T03:00:35;97358.91;;;4.49;100.00
10348;BME280;5220;43.192;23.284;2024-01-27T03:03:02;97351.63;;;4.59;100.00
10348;BME280;5220;43.192;23.284;2024-01-27T03:05:29;97337.72;;;4.63;100.00
10348;BME280;5220;43.192;23.284;2024-01-27T03:07:56;97343.00;;;4.60;100.00
10348;BME280;5220;43.192;23.284;2024-01-27T03:10:22;97332.34;;;4.67;100.00
10348;BME280;5220;43.192;23.284;2024-01-27T03:12:49;97333.00;;;4.72;100.00
10348;BME280;5220;43.192;23.284;2024-01-27T03:15:17;97339.47;;;4.81;100.00
10348;BME280;5220;43.192;23.284;2024-01-27T03:17:45;97334.91;;;4.87;100.00
10348;BME280;5220;43.192;23.284;2024-01-27T03:20:11;97337.25;;;4.92;100.00
10348;BME280;5220;43.192;23.284;2024-01-27T03:22:38;97334.63;;;4.94;100.00
10348;BME280;5220;43.192;23.284;2024-01-27T03:25:07;97325.78;;;4.99;100.00
10348;BME280;5220;43.192;23.284;2024-01-27T03:27:34;97320.63;;;4.99;100.00
10348;BME280;5220;43.192;23.284;2024-01-27T03:30:01;97332.66;;;4.99;100.00
10348;BME280;5220;43.192;23.284;2024-01-27T03:32:29;97326.00;;;4.95;100.00
10348;BME280;5220;43.192;23.284;2024-01-27T03:34:58;97322.16;;;5.03;100.00
10348;BME280;5220;43.192;23.284;2024-01-27T03:37:25;97314.44;;;5.03;100.00
10348;BME280;5220;43.192;23.284;2024-01-27T03:39:52;97309.31;;;5.02;100.00
10348;BME280;5220;43.192;23.284;2024-01-27T03:42:18;97309.28;;;5.03;100.00
10348;BME280;5220;43.192;23.284;2024-01-27T03:44:45;97301.16;;;4.92;100.00
10348;BME280;5220;43.192;23.284;2024-01-27T03:47:13;97308.00;;;4.93;100.00
10348;BME280;5220;43.192;23.284;2024-01-27T03:49:39;97297.38;;;5.01;100.00
10348;BME280;5220;43.192;23.284;2024-01-27T03:52:07;97279.38;;;4.99;100.00
10348;BME280;5220;43.192;23.284;2024-01-27T03:54:34;97275.81;;;5.02;100.00
10348;BME280;5220;43.192;23.284;2024-01-27T03:57:01;97282.84;;;4.98;100.00
10348;BME280;5220;43.192;23.284;2024-01-27T03:59:27;97279.19;;;5.04;100.00
10348;BME280;5220;43.192;23.284;2024-01-27T04:01:54;97285.09;;;5.06;100.00
10348;BME280;5220;43.192;23.284;2024-01-27T04:04:21;97278.63;;;4.97;100.00
10348;BME280;5220;43.192;23.284;2024-01-27T04:06:47;97271.84;;;5.13;100.00
10348;BME280;5220;43.192;23.284;2024-01-27T04:09:15;97269.97;;;5.17;100.00
10348;BME280;5220;43.192;23.284;2024-01-27T04:11:42;97258.59;;;5.21;100.00
10348;BME280;5220;43.192;23.284;2024-01-27T04:14:09;97256.78;;;5.23;100.00
10348;BME280;5220;43.192;23.284;2024-01-27T04:16:36;97255.09;;;5.22;100.00
10348;BME280;5220;43.192;23.284;2024-01-27T04:19:02;97254.16;;;5.06;100.00
10348;BME280;5220;43.192;23.284;2024-01-27T04:21:29;97262.72;;;5.06;100.00
10348;BME280;5220;43.192;23.284;2024-01-27T04:23:56;97257.44;;;5.09;100.00
10348;BME280;5220;43.192;23.284;2024-01-27T04:26:24;97265.00;;;5.12;100.00
10348;BME280;5220;43.192;23.284;2024-01-27T04:28:50;97264.94;;;4.95;100.00
10348;BME280;5220;43.192;23.284;2024-01-27T04:31:17;97266.34;;;4.83;100.00
10348;BME280;5220;43.192;23.284;2024-01-27T04:33:44;97267.03;;;5.06;100.00
10348;BME280;5220;43.192;23.284;2024-01-27T04:36:11;97263.34;;;5.11;100.00
10348;BME280;5220;43.192;23.284;2024-01-27T04:38:37;97267.31;;;5.18;100.00
10348;BME280;5220;43.192;23.284;2024-01-27T04:41:04;97281.03;;;5.19;100.00
10348;BME280;5220;43.192;23.284;2024-01-27T04:43:32;97288.84;;;5.17;100.00
10348;BME280;5220;43.192;23.284;2024-01-27T04:45:59;97283.47;;;5.22;100.00
10348;BME280;5220;43.192;23.284;2024-01-27T04:48:25;97278.09;;;5.08;100.00
10348;BME280;5220;43.192;23.284;2024-01-27T04:50:52;97286.63;;;4.72;100.00
10348;BME280;5220;43.192;23.284;2024-01-27T04:53:19;97272.41;;;5.01;100.00
10348;BME280;5220;43.192;23.284;2024-01-27T04:55:45;97278.59;;;5.16;100.00
10348;BME280;5220;43.192;23.284;2024-01-27T04:58:12;97272.13;;;5.26;100.00
10348;BME280;5220;43.192;23.284;2024-01-27T05:00:41;97282.06;;;5.33;100.00
10348;BME280;5220;43.192;23.284;2024-01-27T05:03:07;97280.47;;;5.12;100.00
10348;BME280;5220;43.192;23.284;2024-01-27T05:05:40;97287.66;;;5.24;100.00
10348;BME280;5220;43.192;23.284;2024-01-27T05:08:07;97300.81;;;5.37;100.00
10348;BME280;5220;43.192;23.284;2024-01-27T05:10:34;97289.44;;;5.41;100.00
10348;BME280;5220;43.192;23.284;2024-01-27T05:13:01;97285.81;;;5.45;100.00
10348;BME280;5220;43.192;23.284;2024-01-27T05:15:27;97283.16;;;5.47;100.00
10348;BME280;5220;43.192;23.284;2024-01-27T05:17:56;97288.38;;;5.45;100.00
10348;BME280;5220;43.192;23.284;2024-01-27T05:20:22;97277.53;;;5.38;100.00
10348;BME280;5220;43.192;23.284;2024-01-27T05:22:49;97274.38;;;5.51;100.00
10348;BME280;5220;43.192;23.284;2024-01-27T05:25:15;97274.09;;;5.57;100.00
10348;BME280;5220;43.192;23.284;2024-01-27T05:27:42;97263.66;;;5.58;100.00
10348;BME280;5220;43.192;23.284;2024-01-27T05:30:09;97264.66;;;5.38;100.00
10348;BME280;5220;43.192;23.284;2024-01-27T05:32:36;97259.41;;;5.40;100.00
10348;BME280;5220;43.192;23.284;2024-01-27T05:35:06;97251.91;;;5.53;100.00
10348;BME280;5220;43.192;23.284;2024-01-27T05:37:33;97255.94;;;5.58;100.00
10348;BME280;5220;43.192;23.284;2024-01-27T05:40:00;97258.31;;;5.63;100.00
10348;BME280;5220;43.192;23.284;2024-01-27T05:42:27;97260.88;;;5.63;100.00
10348;BME280;5220;43.192;23.284;2024-01-27T05:44:54;97265.13;;;5.64;100.00
10348;BME280;5220;43.192;23.284;2024-01-27T05:47:21;97264.00;;;5.69;100.00
10348;BME280;5220;43.192;23.284;2024-01-27T05:49:47;97276.66;;;5.74;100.00
10348;BME280;5220;43.192;23.284;2024-01-27T05:52:15;97288.72;;;5.73;100.00
10348;BME280;5220;43.192;23.284;2024-01-27T05:54:42;97297.25;;;5.75;100.00
10348;BME280;5220;43.192;23.284;2024-01-27T05:57:09;97305.69;;;5.79;100.00
10348;BME280;5220;43.192;23.284;2024-01-27T05:59:35;97321.19;;;5.79;100.00
10348;BME280;5220;43.192;23.284;2024-01-27T06:02:03;97324.50;;;5.81;100.00
10348;BME280;5220;43.192;23.284;2024-01-27T06:04:30;97324.38;;;5.84;100.00
10348;BME280;5220;43.192;23.284;2024-01-27T06:06:58;97332.28;;;5.62;100.00
10348;BME280;5220;43.192;23.284;2024-01-27T06:09:27;97317.41;;;5.50;100.00
10348;BME280;5220;43.192;23.284;2024-01-27T06:11:53;97333.78;;;5.49;100.00
10348;BME280;5220;43.192;23.284;2024-01-27T06:14:20;97310.09;;;5.22;100.00
10348;BME280;5220;43.192;23.284;2024-01-27T06:16:47;97296.25;;;5.42;100.00
10348;BME280;5220;43.192;23.284;2024-01-27T06:19:13;97296.56;;;4.99;100.00
10348;BME280;5220;43.192;23.284;2024-01-27T06:21:40;97306.97;;;4.78;100.00
10348;BME280;5220;43.192;23.284;2024-01-27T06:24:07;97290.38;;;4.84;100.00
10348;BME280;5220;43.192;23.284;2024-01-27T06:26:35;97269.41;;;5.10;100.00
10348;BME280;5220;43.192;23.284;2024-01-27T06:29:02;97257.59;;;5.23;100.00
10348;BME280;5220;43.192;23.284;2024-01-27T06:31:29;97262.56;;;5.28;100.00
10348;BME280;5220;43.192;23.284;2024-01-27T06:33:56;97249.50;;;5.31;100.00
10348;BME280;5220;43.192;23.284;2024-01-27T06:36:22;97244.63;;;5.43;100.00
10348;BME280;5220;43.192;23.284;2024-01-27T06:38:50;97250.16;;;5.70;100.00
10348;BME280;5220;43.192;23.284;2024-01-27T06:41:17;97260.41;;;5.90;100.00
10348;BME280;5220;43.192;23.284;2024-01-27T06:43:45;97262.38;;;6.03;100.00
10348;BME280;5220;43.192;23.284;2024-01-27T06:46:11;97282.66;;;6.10;100.00
10348;BME280;5220;43.192;23.284;2024-01-27T06:48:38;97283.25;;;6.15;100.00
10348;BME280;5220;43.192;23.284;2024-01-27T06:51:05;97276.03;;;6.22;100.00
10348;BME280;5220;43.192;23.284;2024-01-27T06:53:32;97273.19;;;6.26;100.00
10348;BME280;5220;43.192;23.284;2024-01-27T06:55:59;97278.97;;;6.31;100.00
10348;BME280;5220;43.192;23.284;2024-01-27T06:58:25;97271.81;;;6.36;100.00
10348;BME280;5220;43.192;23.284;2024-01-27T07:00:53;97280.16;;;6.41;100.00
10348;BME280;5220;43.192;23.284;2024-01-27T07:03:20;97279.25;;;6.42;100.00
10348;BME280;5220;43.192;23.284;2024-01-27T07:05:47;97284.22;;;6.47;100.00
10348;BME280;5220;43.192;23.284;2024-01-27T07:08:13;97301.34;;;6.48;100.00
10348;BME280;5220;43.192;23.284;2024-01-27T07:10:40;97319.22;;;6.53;100.00
10348;BME280;5220;43.192;23.284;2024-01-27T07:13:07;97345.97;;;6.52;100.00
10348;BME280;5220;43.192;23.284;2024-01-27T07:15:33;97376.94;;;6.53;100.00
10348;BME280;5220;43.192;23.284;2024-01-27T07:18:04;97375.78;;;6.24;100.00
10348;BME280;5220;43.192;23.284;2024-01-27T07:20:33;97380.16;;;5.88;100.00
10348;BME280;5220;43.192;23.284;2024-01-27T07:22:59;97413.63;;;5.89;100.00
10348;BME280;5220;43.192;23.284;2024-01-27T07:25:26;97413.16;;;6.17;100.00
10348;BME280;5220;43.192;23.284;2024-01-27T07:27:53;97419.59;;;6.26;100.00
10348;BME280;5220;43.192;23.284;2024-01-27T07:30:20;97427.75;;;6.35;100.00
10348;BME280;5220;43.192;23.284;2024-01-27T07:32:47;97450.13;;;6.54;100.00
10348;BME280;5220;43.192;23.284;2024-01-27T07:35:15;97470.06;;;6.69;100.00
10348;BME280;5220;43.192;23.284;2024-01-27T07:37:42;97494.53;;;6.79;100.00
10348;BME280;5220;43.192;23.284;2024-01-27T07:40:09;97524.03;;;6.92;100.00
10348;BME280;5220;43.192;23.284;2024-01-27T07:42:36;97545.72;;;6.89;100.00
10348;BME280;5220;43.192;23.284;2024-01-27T07:45:04;97542.97;;;6.92;100.00
10348;BME280;5220;43.192;23.284;2024-01-27T07:47:31;97530.13;;;7.08;100.00
10348;BME280;5220;43.192;23.284;2024-01-27T07:49:57;97538.41;;;6.97;100.00
10348;BME280;5220;43.192;23.284;2024-01-27T07:52:25;97534.63;;;7.04;100.00
10348;BME280;5220;43.192;23.284;2024-01-27T07:54:52;97545.13;;;7.19;100.00
10348;BME280;5220;43.192;23.284;2024-01-27T07:57:19;97558.59;;;7.25;100.00
10348;BME280;5220;43.192;23.284;2024-01-27T07:59:46;97564.53;;;7.27;100.00
10348;BME280;5220;43.192;23.284;2024-01-27T08:02:13;97530.19;;;7.24;100.00
10348;BME280;5220;43.192;23.284;2024-01-27T08:04:39;97528.53;;;7.23;100.00
10348;BME280;5220;43.192;23.284;2024-01-27T08:07:06;97520.13;;;7.35;100.00
10348;BME280;5220;43.192;23.284;2024-01-27T08:09:36;97515.25;;;7.46;100.00
10348;BME280;5220;43.192;23.284;2024-01-27T08:12:05;97506.53;;;7.64;100.00
10348;BME280;5220;43.192;23.284;2024-01-27T08:14:32;97507.00;;;7.55;100.00
10348;BME280;5220;43.192;23.284;2024-01-27T08:17:00;97503.31;;;7.43;100.00
10348;BME280;5220;43.192;23.284;2024-01-27T08:19:29;97498.88;;;7.45;100.00
10348;BME280;5220;43.192;23.284;2024-01-27T08:21:55;97503.84;;;7.50;100.00
10348;BME280;5220;43.192;23.284;2024-01-27T08:24:22;97497.03;;;7.47;100.00
10348;BME280;5220;43.192;23.284;2024-01-27T08:26:51;97471.72;;;7.85;100.00
10348;BME280;5220;43.192;23.284;2024-01-27T08:29:17;97485.75;;;7.66;99.93
10348;BME280;5220;43.192;23.284;2024-01-27T08:31:44;97497.56;;;7.87;100.00
10348;BME280;5220;43.192;23.284;2024-01-27T08:34:11;97496.53;;;7.89;98.81
10348;BME280;5220;43.192;23.284;2024-01-27T08:36:39;97488.69;;;8.06;95.51
10348;BME280;5220;43.192;23.284;2024-01-27T08:39:06;97483.50;;;8.22;99.45
10348;BME280;5220;43.192;23.284;2024-01-27T08:41:34;97497.22;;;8.24;99.93
10348;BME280;5220;43.192;23.284;2024-01-27T08:44:02;97499.16;;;8.05;92.05
10348;BME280;5220;43.192;23.284;2024-01-27T08:46:29;97502.25;;;8.11;93.42
10348;BME280;5220;43.192;23.284;2024-01-27T08:48:55;97492.03;;;8.24;91.75
10348;BME280;5220;43.192;23.284;2024-01-27T08:51:22;97491.72;;;8.15;88.40
10348;BME280;5220;43.192;23.284;2024-01-27T08:53:49;97488.63;;;8.24;84.46
10348;BME280;5220;43.192;23.284;2024-01-27T08:56:15;97490.88;;;8.45;88.80
10348;BME280;5220;43.192;23.284;2024-01-27T08:58:43;97479.78;;;8.43;89.17
10348;BME280;5220;43.192;23.284;2024-01-27T09:01:11;97475.75;;;8.38;86.59
10348;BME280;5220;43.192;23.284;2024-01-27T09:03:38;97477.75;;;8.33;90.38
10348;BME280;5220;43.192;23.284;2024-01-27T09:06:05;97472.63;;;8.47;87.64
10348;BME280;5220;43.192;23.284;2024-01-27T09:08:33;97463.78;;;8.35;87.83
10348;BME280;5220;43.192;23.284;2024-01-27T09:10:59;97465.03;;;8.44;82.19
10348;BME280;5220;43.192;23.284;2024-01-27T09:13:26;97469.03;;;8.65;88.52
10348;BME280;5220;43.192;23.284;2024-01-27T09:15:53;97473.25;;;8.66;91.64
10348;BME280;5220;43.192;23.284;2024-01-27T09:18:21;97468.38;;;8.76;84.88
10348;BME280;5220;43.192;23.284;2024-01-27T09:20:48;97457.88;;;8.93;83.79
10348;BME280;5220;43.192;23.284;2024-01-27T09:23:14;97475.75;;;8.83;85.68
10348;BME280;5220;43.192;23.284;2024-01-27T09:25:41;97466.81;;;8.73;78.23
10348;BME280;5220;43.192;23.284;2024-01-27T09:28:08;97472.91;;;8.72;84.01
10348;BME280;5220;43.192;23.284;2024-01-27T09:30:35;97452.16;;;8.72;77.91
10348;BME280;5220;43.192;23.284;2024-01-27T09:33:01;97457.84;;;8.79;80.17
10348;BME280;5220;43.192;23.284;2024-01-27T09:35:29;97473.56;;;8.76;82.47
10348;BME280;5220;43.192;23.284;2024-01-27T09:37:56;97490.25;;;8.72;81.24
10348;BME280;5220;43.192;23.284;2024-01-27T09:40:22;97460.13;;;8.69;82.53
10348;BME280;5220;43.192;23.284;2024-01-27T09:42:51;97466.81;;;8.73;87.39
10348;BME280;5220;43.192;23.284;2024-01-27T09:45:19;97467.13;;;8.83;86.59
10348;BME280;5220;43.192;23.284;2024-01-27T09:47:47;97484.06;;;8.74;82.46
10348;BME280;5220;43.192;23.284;2024-01-27T09:50:14;97482.09;;;8.93;87.63
10348;BME280;5220;43.192;23.284;2024-01-27T09:52:45;97488.06;;;8.80;86.65
10348;BME280;5220;43.192;23.284;2024-01-27T09:55:11;97493.19;;;8.95;83.92
10348;BME280;5220;43.192;23.284;2024-01-27T09:57:38;97490.06;;;9.04;87.14
10348;BME280;5220;43.192;23.284;2024-01-27T10:00:10;97493.56;;;9.03;88.24
10348;BME280;5220;43.192;23.284;2024-01-27T10:02:39;97498.69;;;9.05;88.94
10348;BME280;5220;43.192;23.284;2024-01-27T10:05:08;97501.22;;;8.91;88.49
10348;BME280;5220;43.192;23.284;2024-01-27T10:07:35;97502.72;;;8.81;88.40
10348;BME280;5220;43.192;23.284;2024-01-27T10:10:04;97513.59;;;8.72;86.66
10348;BME280;5220;43.192;23.284;2024-01-27T10:12:31;97527.72;;;8.66;87.27
10348;BME280;5220;43.192;23.284;2024-01-27T10:14:59;97513.44;;;8.75;86.01
10348;BME280;5220;43.192;23.284;2024-01-27T10:17:25;97524.41;;;8.94;87.38
10348;BME280;5220;43.192;23.284;2024-01-27T10:20:01;97521.91;;;8.92;84.96
10348;BME280;5220;43.192;23.284;2024-01-27T10:22:29;97523.84;;;8.89;85.31
10348;BME280;5220;43.192;23.284;2024-01-27T10:24:55;97513.59;;;9.01;85.92
10348;BME280;5220;43.192;23.284;2024-01-27T10:27:24;97534.53;;;8.98;84.56
10348;BME280;5220;43.192;23.284;2024-01-27T10:29:53;97527.44;;;9.16;83.42
10348;BME280;5220;43.192;23.284;2024-01-27T10:32:21;97543.66;;;9.05;84.56
10348;BME280;5220;43.192;23.284;2024-01-27T10:34:49;97533.34;;;9.04;81.51
10348;BME280;5220;43.192;23.284;2024-01-27T10:37:24;97540.94;;;9.07;77.78
10348;BME280;5220;43.192;23.284;2024-01-27T10:39:59;97557.66;;;9.17;80.22
10348;BME280;5220;43.192;23.284;2024-01-27T10:42:28;97548.56;;;9.10;77.22
10348;BME280;5220;43.192;23.284;2024-01-27T10:44:57;97536.28;;;9.28;77.04
10348;BME280;5220;43.192;23.284;2024-01-27T10:47:26;97534.44;;;9.30;75.54
10348;BME280;5220;43.192;23.284;2024-01-27T10:49:54;97544.34;;;9.37;77.25
10348;BME280;5220;43.192;23.284;2024-01-27T10:52:23;97540.34;;;9.32;79.53
10348;BME280;5220;43.192;23.284;2024-01-27T10:54:55;97543.38;;;9.54;76.75
10348;BME280;5220;43.192;23.284;2024-01-27T10:57:24;97548.56;;;9.10;72.05
10348;BME280;5220;43.192;23.284;2024-01-27T10:59:53;97550.25;;;9.11;74.53
10348;BME280;5220;43.192;23.284;2024-01-27T11:02:22;97555.63;;;9.22;75.52
10348;BME280;5220;43.192;23.284;2024-01-27T11:04:50;97557.47;;;9.06;75.74
10348;BME280;5220;43.192;23.284;2024-01-27T11:07:19;97553.72;;;8.96;82.31
10348;BME280;5220;43.192;23.284;2024-01-27T11:09:46;97575.00;;;9.16;77.94
10348;BME280;5220;43.192;23.284;2024-01-27T11:12:16;97577.34;;;9.21;80.62
10348;BME280;5220;43.192;23.284;2024-01-27T11:14:43;97570.81;;;9.14;76.31
10348;BME280;5220;43.192;23.284;2024-01-27T11:17:12;97576.56;;;9.19;76.47
10348;BME280;5220;43.192;23.284;2024-01-27T11:19:39;97574.84;;;9.04;75.34
10348;BME280;5220;43.192;23.284;2024-01-27T11:22:06;97572.03;;;9.08;76.10
10348;BME280;5220;43.192;23.284;2024-01-27T11:24:33;97571.31;;;9.21;78.48
10348;BME280;5220;43.192;23.284;2024-01-27T11:27:01;97568.81;;;9.03;74.68
10348;BME280;5220;43.192;23.284;2024-01-27T11:29:28;97575.13;;;9.29;79.31
10348;BME280;5220;43.192;23.284;2024-01-27T11:31:55;97574.16;;;9.16;75.52
10348;BME280;5220;43.192;23.284;2024-01-27T11:34:23;97592.31;;;9.16;78.09
10348;BME280;5220;43.192;23.284;2024-01-27T11:36:50;97608.09;;;8.97;75.94
10348;BME280;5220;43.192;23.284;2024-01-27T11:39:24;97613.22;;;8.99;78.17
10348;BME280;5220;43.192;23.284;2024-01-27T11:41:52;97611.72;;;8.95;79.57
10348;BME280;5220;43.192;23.284;2024-01-27T11:44:19;97606.84;;;9.04;81.26
10348;BME280;5220;43.192;23.284;2024-01-27T11:46:47;97614.06;;;8.84;81.81
10348;BME280;5220;43.192;23.284;2024-01-27T11:49:15;97618.66;;;8.79;78.96
10348;BME280;5220;43.192;23.284;2024-01-27T11:51:44;97624.28;;;8.87;83.79
10348;BME280;5220;43.192;23.284;2024-01-27T11:54:11;97636.31;;;8.88;78.47
10348;BME280;5220;43.192;23.284;2024-01-27T11:56:38;97641.00;;;8.81;68.85
10348;BME280;5220;43.192;23.284;2024-01-27T11:59:05;97639.75;;;8.73;65.61
10348;BME280;5220;43.192;23.284;2024-01-27T12:01:31;97613.25;;;8.68;62.09
10348;BME280;5220;43.192;23.284;2024-01-27T12:03:58;97639.69;;;8.74;60.85
10348;BME280;5220;43.192;23.284;2024-01-27T12:06:25;97642.28;;;8.90;60.10
10348;BME280;5220;43.192;23.284;2024-01-27T12:08:55;97641.44;;;8.89;59.06
10348;BME280;5220;43.192;23.284;2024-01-27T12:11:22;97648.22;;;8.92;58.72
10348;BME280;5220;43.192;23.284;2024-01-27T12:13:49;97656.13;;;9.20;59.13
10348;BME280;5220;43.192;23.284;2024-01-27T12:16:16;97663.75;;;9.23;58.86
10348;BME280;5220;43.192;23.284;2024-01-27T12:18:43;97657.50;;;9.41;57.88
10348;BME280;5220;43.192;23.284;2024-01-27T12:21:10;97655.75;;;9.42;58.06
10348;BME280;5220;43.192;23.284;2024-01-27T12:23:50;97661.13;;;9.39;59.23
10348;BME280;5220;43.192;23.284;2024-01-27T12:26:20;97668.03;;;9.54;58.22
10348;BME280;5220;43.192;23.284;2024-01-27T12:28:46;97675.56;;;9.58;57.27
10348;BME280;5220;43.192;23.284;2024-01-27T12:31:15;97667.59;;;9.61;56.18
10348;BME280;5220;43.192;23.284;2024-01-27T12:33:48;97675.69;;;9.71;55.73
10348;BME280;5220;43.192;23.284;2024-01-27T12:36:17;97681.44;;;9.62;54.63
10348;BME280;5220;43.192;23.284;2024-01-27T12:38:46;97679.28;;;9.68;53.79
10348;BME280;5220;43.192;23.284;2024-01-27T12:41:13;97689.75;;;9.83;55.48
10348;BME280;5220;43.192;23.284;2024-01-27T12:43:41;97696.34;;;9.88;53.34
10348;BME280;5220;43.192;23.284;2024-01-27T12:46:08;97714.94;;;9.51;52.23
10348;BME280;5220;43.192;23.284;2024-01-27T12:48:36;97719.84;;;9.26;50.49
10348;BME280;5220;43.192;23.284;2024-01-27T12:51:04;97719.84;;;9.10;49.99
10348;BME280;5220;43.192;23.284;2024-01-27T12:53:31;97729.38;;;9.25;50.16
10348;BME280;5220;43.192;23.284;2024-01-27T12:55:57;97737.09;;;9.11;49.22
10348;BME280;5220;43.192;23.284;2024-01-27T12:58:24;97761.88;;;9.01;49.62
10348;BME280;5220;43.192;23.284;2024-01-27T13:00:52;97760.00;;;8.72;48.83
10348;BME280;5220;43.192;23.284;2024-01-27T13:03:19;97758.19;;;8.89;50.31
10348;BME280;5220;43.192;23.284;2024-01-27T13:05:45;97757.19;;;8.43;50.55